Time;durP1;ratioP1;P1;durP2;ratioP2;P2;SDS_P1;SDS_P2;PMS_P1;PMS_P2;Temp;Humidity;BMP_temperature;BMP_pressure;BME280_temperature;BME280_humidity;BME280_pressure;Samples;Min_cycle;Max_cycle;Signal;HPM_P1;HPM_P2
2022/03/08 00:01:28;;;;;;;37.30;18.70;;;4.60;17.00;;;;;;4994487;28;20178;-77
2022/03/08 00:03:54;;;;;;;47.85;20.02;;;4.70;16.10;;;;;;4994766;28;20194;-77
2022/03/08 00:06:20;;;;;;;34.50;19.83;;;4.60;16.00;;;;;;4990219;28;20832;-78
2022/03/08 00:08:46;;;;;;;39.50;18.53;;;4.50;17.30;;;;;;4988222;28;20289;-79
2022/03/08 00:11:12;;;;;;;41.37;19.67;;;4.60;16.60;;;;;;4994133;28;20320;-75
2022/03/08 00:13:38;;;;;;;41.53;20.23;;;4.60;17.50;;;;;;4994601;28;20432;-78
2022/03/08 00:16:04;;;;;;;37.63;19.10;;;4.60;16.40;;;;;;4993982;28;20190;-79
2022/03/08 00:18:29;;;;;;;34.93;17.77;;;4.20;16.30;;;;;;4994570;28;20202;-78
2022/03/08 00:20:55;;;;;;;34.60;16.07;;;3.50;17.70;;;;;;4989736;28;20438;-77
2022/03/08 00:23:21;;;;;;;38.27;17.60;;;3.60;17.00;;;;;;4999910;28;20205;-78
2022/03/08 00:25:46;;;;;;;34.03;17.90;;;3.30;17.60;;;;;;4987121;28;20657;-78
2022/03/08 00:28:12;;;;;;;31.40;16.60;;;3.80;17.00;;;;;;4984751;28;20705;-77
2022/03/08 00:30:38;;;;;;;31.80;17.17;;;4.10;15.80;;;;;;4988038;28;20500;-78
2022/03/08 00:33:04;;;;;;;28.97;15.17;;;4.00;16.00;;;;;;4993869;28;20178;-79
2022/03/08 00:35:30;;;;;;;32.47;15.63;;;4.20;15.70;;;;;;4993943;28;20189;-77
2022/03/08 00:37:58;;;;;;;31.97;16.00;;;4.20;15.80;;;;;;4992799;28;20213;-74
2022/03/08 00:40:25;;;;;;;31.70;15.80;;;4.50;15.90;;;;;;4988274;28;20428;-77
2022/03/08 00:42:52;;;;;;;32.00;17.02;;;4.20;16.10;;;;;;4993347;28;20210;-77
2022/03/08 00:45:18;;;;;;;34.30;16.20;;;4.40;15.80;;;;;;4993848;28;20190;-75
2022/03/08 00:47:44;;;;;;;31.50;16.13;;;4.60;15.90;;;;;;4987067;28;20202;-74
2022/03/08 00:50:15;;;;;;;28.88;14.48;;;4.90;15.30;;;;;;4991236;28;20313;-74
2022/03/08 00:52:41;;;;;;;26.15;13.38;;;4.40;15.60;;;;;;4994008;28;20185;-74
2022/03/08 00:55:09;;;;;;;28.17;14.67;;;4.20;15.30;;;;;;4991511;28;20178;-74
2022/03/08 00:57:35;;;;;;;28.77;15.25;;;4.00;15.40;;;;;;4988936;28;20336;-78
2022/03/08 01:00:01;;;;;;;26.35;13.30;;;4.20;15.40;;;;;;4992941;28;20263;-78
2022/03/08 01:02:26;;;;;;;24.90;13.53;;;4.10;15.50;;;;;;4992915;28;20663;-77
2022/03/08 01:04:52;;;;;;;32.00;14.40;;;4.50;15.20;;;;;;4988179;28;20479;-77
2022/03/08 01:07:18;;;;;;;28.57;14.20;;;4.10;15.20;;;;;;4989890;28;20201;-79
2022/03/08 01:09:44;;;;;;;27.17;14.70;;;4.20;15.70;;;;;;4990603;28;20178;-78
2022/03/08 01:12:10;;;;;;;24.65;14.68;;;4.30;15.40;;;;;;4991254;28;20181;-77
2022/03/08 01:14:36;;;;;;;25.57;13.90;;;4.60;15.10;;;;;;4993260;28;20185;-77
2022/03/08 01:17:01;;;;;;;30.83;13.97;;;4.50;14.80;;;;;;4992904;28;20197;-77
2022/03/08 01:19:27;;;;;;;25.90;13.50;;;4.00;15.60;;;;;;4993452;28;20185;-77
2022/03/08 01:21:53;;;;;;;31.10;14.03;;;4.40;15.40;;;;;;4992947;28;20182;-78
2022/03/08 01:24:18;;;;;;;24.77;13.80;;;4.20;15.20;;;;;;4991255;28;20194;-74
2022/03/08 01:26:44;;;;;;;26.30;13.60;;;4.50;15.50;;;;;;4992696;28;20174;-74
2022/03/08 01:29:09;;;;;;;22.30;12.83;;;4.80;15.20;;;;;;4984274;28;20186;-75
2022/03/08 01:31:35;;;;;;;25.53;13.33;;;5.00;14.10;;;;;;4993188;28;20186;-75
2022/03/08 01:34:02;;;;;;;27.03;13.63;;;4.60;15.60;;;;;;4988132;28;20185;-74
2022/03/08 01:36:28;;;;;;;24.50;14.50;;;4.70;14.70;;;;;;4985597;28;20198;-75
2022/03/08 01:38:54;;;;;;;22.97;13.27;;;4.50;15.40;;;;;;4992307;28;20256;-77
2022/03/08 01:41:20;;;;;;;27.23;14.47;;;4.20;15.40;;;;;;4992374;28;20491;-78
2022/03/08 01:43:46;;;;;;;24.70;12.57;;;3.80;16.30;;;;;;4991854;28;20225;-77
2022/03/08 01:46:13;;;;;;;25.10;13.03;;;4.10;15.80;;;;;;4992535;28;20213;-78
2022/03/08 01:48:38;;;;;;;24.70;12.80;;;4.40;15.80;;;;;;4992030;28;20464;-77
2022/03/08 01:51:05;;;;;;;27.27;15.13;;;4.20;15.80;;;;;;4988004;28;20170;-77
2022/03/08 01:53:32;;;;;;;28.70;15.25;;;3.20;17.00;;;;;;4992653;28;20544;-77
2022/03/08 01:55:58;;;;;;;34.03;17.30;;;3.30;17.80;;;;;;4993018;28;20182;-79
2022/03/08 01:58:23;;;;;;;31.70;16.17;;;3.20;18.20;;;;;;4991983;28;20687;-77
2022/03/08 02:00:49;;;;;;;35.40;16.47;;;2.70;18.40;;;;;;4992724;28;20229;-77
2022/03/08 02:03:14;;;;;;;37.47;16.80;;;2.70;19.20;;;;;;4992122;28;20199;-77
2022/03/08 02:05:40;;;;;;;30.33;16.60;;;3.20;18.90;;;;;;4990953;28;20178;-78
2022/03/08 02:08:07;;;;;;;33.80;18.13;;;3.60;18.40;;;;;;4989594;28;20671;-77
2022/03/08 02:10:32;;;;;;;36.00;18.27;;;3.20;18.40;;;;;;4991998;28;20725;-78
2022/03/08 02:12:58;;;;;;;29.77;16.07;;;3.70;18.00;;;;;;4991615;28;20197;-77
2022/03/08 02:15:26;;;;;;;35.80;18.30;;;3.90;18.70;;;;;;4990418;28;20194;-77
2022/03/08 02:17:55;;;;;;;34.78;17.23;;;4.30;17.60;;;;;;4991064;28;20209;-77
2022/03/08 02:20:20;;;;;;;31.50;17.23;;;4.20;16.70;;;;;;4991678;28;20717;-78
2022/03/08 02:22:48;;;;;;;36.70;16.50;;;4.40;16.80;;;;;;4992134;28;20206;-77
2022/03/08 02:25:15;;;;;;;36.50;17.35;;;3.90;17.90;;;;;;4991524;28;20289;-77
2022/03/08 02:27:42;;;;;;;33.85;17.40;;;3.90;17.60;;;;;;4989969;28;20235;-78
2022/03/08 02:30:13;;;;;;;32.95;17.13;;;3.70;18.20;;;;;;4987826;28;20269;-77
2022/03/08 02:32:39;;;;;;;40.47;18.85;;;4.00;17.90;;;;;;4991932;28;20235;-77
2022/03/08 02:35:14;;;;;;;39.70;18.00;;;4.10;18.10;;;;;;4992204;28;20186;-77
2022/03/08 02:37:42;;;;;;;39.00;18.60;;;4.20;17.40;;;;;;4984149;28;20225;-77
2022/03/08 02:40:10;;;;;;;38.58;18.00;;;4.00;17.90;;;;;;4991456;28;20190;-77
2022/03/08 02:42:35;;;;;;;35.80;18.73;;;4.00;18.40;;;;;;4991151;28;20289;-77
2022/03/08 02:45:02;;;;;;;38.60;18.70;;;3.90;18.50;;;;;;4986398;28;20607;-78
2022/03/08 02:47:28;;;;;;;42.78;17.73;;;3.90;18.70;;;;;;4988990;28;20441;-77
2022/03/08 02:49:53;;;;;;;37.40;17.27;;;3.70;18.30;;;;;;4986699;28;20542;-77
2022/03/08 02:52:19;;;;;;;35.70;17.87;;;3.60;19.00;;;;;;4991658;28;20174;-77
2022/03/08 02:54:44;;;;;;;41.00;18.70;;;3.50;19.20;;;;;;4991544;28;20182;-77
2022/03/08 02:57:10;;;;;;;37.70;18.73;;;3.40;19.30;;;;;;4990998;28;20244;-77
2022/03/08 02:59:36;;;;;;;35.57;18.37;;;3.30;20.50;;;;;;4991124;28;20186;-77
2022/03/08 03:02:03;;;;;;;35.97;16.27;;;3.50;18.70;;;;;;4992824;28;20177;-77
2022/03/08 03:04:29;;;;;;;38.13;17.50;;;3.50;18.60;;;;;;4992493;28;20198;-77
2022/03/08 03:06:55;;;;;;;35.00;17.97;;;3.10;19.40;;;;;;4991538;28;20181;-77
2022/03/08 03:09:20;;;;;;;34.20;16.30;;;3.40;18.80;;;;;;4990491;28;20178;-77
2022/03/08 03:11:46;;;;;;;35.80;17.90;;;3.80;18.60;;;;;;4991495;28;20185;-78
2022/03/08 03:14:11;;;;;;;32.77;17.00;;;3.90;18.10;;;;;;4991562;28;20184;-77
2022/03/08 03:16:38;;;;;;;34.93;16.83;;;3.20;19.80;;;;;;4991466;28;20228;-77
2022/03/08 03:19:04;;;;;;;40.03;18.45;;;3.00;19.70;;;;;;4990944;28;20178;-77
2022/03/08 03:21:29;;;;;;;34.28;16.05;;;3.10;19.20;;;;;;4991287;28;20277;-77
2022/03/08 03:23:55;;;;;;;33.47;17.30;;;3.00;19.80;;;;;;4994513;28;20288;-77
2022/03/08 03:26:20;;;;;;;39.07;17.10;;;2.90;19.80;;;;;;4994319;28;20303;-77
2022/03/08 03:28:46;;;;;;;36.93;17.77;;;2.90;19.50;;;;;;4995061;28;20593;-78
2022/03/08 03:31:12;;;;;;;31.43;16.70;;;3.00;19.60;;;;;;4994751;28;20205;-77
2022/03/08 03:33:37;;;;;;;33.03;16.90;;;2.90;19.40;;;;;;4995299;28;20228;-77
2022/03/08 03:36:03;;;;;;;31.43;16.57;;;3.20;19.30;;;;;;4987564;28;20186;-77
2022/03/08 03:38:29;;;;;;;29.50;15.60;;;3.30;19.80;;;;;;4996236;28;20221;-78
2022/03/08 03:40:54;;;;;;;32.00;17.07;;;3.60;19.10;;;;;;4992118;28;20429;-79
2022/03/08 03:43:20;;;;;;;33.70;16.53;;;3.40;20.80;;;;;;4996282;28;20209;-77
2022/03/08 03:45:46;;;;;;;28.97;14.67;;;3.10;19.90;;;;;;4995700;28;20177;-77
2022/03/08 03:48:11;;;;;;;37.10;15.90;;;3.20;19.50;;;;;;4994606;28;20613;-77
2022/03/08 03:50:37;;;;;;;28.93;15.30;;;2.80;20.30;;;;;;4994708;28;20214;-77
2022/03/08 03:53:03;;;;;;;30.03;15.93;;;2.60;19.80;;;;;;4988837;28;20178;-78
2022/03/08 03:55:29;;;;;;;33.10;16.83;;;2.80;19.90;;;;;;4992971;28;20801;-77
2022/03/08 03:57:54;;;;;;;30.23;16.27;;;2.90;19.50;;;;;;4985423;28;20285;-77
2022/03/08 04:00:20;;;;;;;27.57;15.33;;;3.30;19.10;;;;;;4993414;28;20185;-77
2022/03/08 04:02:47;;;;;;;33.47;15.73;;;3.50;18.80;;;;;;4994887;28;20770;-77
2022/03/08 04:05:13;;;;;;;30.50;15.43;;;3.20;19.70;;;;;;4994808;28;20240;-77
2022/03/08 04:07:39;;;;;;;26.83;13.80;;;3.60;18.30;;;;;;4993994;28;20857;-77
2022/03/08 04:10:06;;;;;;;30.98;15.73;;;3.50;18.80;;;;;;4994313;28;20648;-77
2022/03/08 04:12:32;;;;;;;25.55;13.77;;;2.70;19.90;;;;;;4994099;28;20218;-77
2022/03/08 04:14:57;;;;;;;31.30;15.27;;;2.30;20.50;;;;;;4989794;28;20221;-77
2022/03/08 04:17:23;;;;;;;31.27;15.20;;;2.30;20.80;;;;;;4994111;28;20683;-77
2022/03/08 04:19:49;;;;;;;28.37;14.80;;;2.40;20.80;;;;;;4989797;28;20265;-77
2022/03/08 04:22:14;;;;;;;30.63;15.37;;;2.60;20.10;;;;;;4992780;28;20591;-77
2022/03/08 04:24:40;;;;;;;30.43;15.70;;;2.60;20.20;;;;;;5009591;28;20268;-77
2022/03/08 04:27:06;;;;;;;30.60;14.83;;;2.50;20.20;;;;;;4994324;28;20216;-78
2022/03/08 04:29:32;;;;;;;32.95;15.70;;;1.60;21.70;;;;;;4994118;28;20166;-78
2022/03/08 04:31:58;;;;;;;30.50;14.93;;;1.80;21.60;;;;;;4993522;28;20224;-77
2022/03/08 04:34:23;;;;;;;36.13;16.53;;;1.90;21.10;;;;;;4989356;28;20186;-76
2022/03/08 04:36:49;;;;;;;38.30;18.10;;;1.80;21.60;;;;;;5007438;28;20436;-77
2022/03/08 04:39:15;;;;;;;33.43;16.57;;;1.40;22.70;;;;;;4986132;28;20197;-77
2022/03/08 04:41:41;;;;;;;35.53;16.73;;;1.70;22.80;;;;;;4993995;28;20174;-77
2022/03/08 04:44:07;;;;;;;32.80;15.47;;;1.90;21.60;;;;;;4993973;28;20206;-77
2022/03/08 04:46:32;;;;;;;27.67;15.25;;;1.90;21.40;;;;;;5006229;28;20476;-79
2022/03/08 04:48:58;;;;;;;32.40;16.10;;;2.20;21.70;;;;;;4987150;28;20385;-79
2022/03/08 04:51:24;;;;;;;27.80;15.03;;;2.30;21.80;;;;;;4993964;28;20209;-78
2022/03/08 04:53:49;;;;;;;34.20;15.37;;;2.50;21.20;;;;;;4993755;28;20190;-77
2022/03/08 04:56:16;;;;;;;30.43;15.07;;;2.80;20.90;;;;;;4992405;28;20648;-77
2022/03/08 04:58:42;;;;;;;38.05;15.45;;;2.40;21.50;;;;;;4993849;28;20202;-77
2022/03/08 05:01:07;;;;;;;31.80;15.23;;;2.80;20.70;;;;;;4993866;28;20734;-77
2022/03/08 05:03:33;;;;;;;26.73;14.30;;;2.90;20.40;;;;;;4993892;28;20194;-77
2022/03/08 05:05:59;;;;;;;29.60;14.97;;;2.70;20.70;;;;;;5009005;28;20539;-77
2022/03/08 05:08:24;;;;;;;30.23;15.30;;;2.30;21.30;;;;;;4993200;28;20248;-78
2022/03/08 05:10:50;;;;;;;27.37;14.70;;;2.60;21.50;;;;;;4992741;28;20671;-77
2022/03/08 05:13:16;;;;;;;49.53;14.30;;;1.90;22.10;;;;;;4992045;28;20663;-77
2022/03/08 05:15:41;;;;;;;28.90;15.80;;;2.20;21.40;;;;;;4993719;28;20273;-76
2022/03/08 05:18:07;;;;;;;28.10;13.37;;;1.30;22.90;;;;;;4993454;28;20242;-77
2022/03/08 05:20:33;;;;;;;28.33;14.50;;;1.80;22.40;;;;;;4993643;28;20639;-76
2022/03/08 05:23:00;;;;;;;29.63;14.40;;;1.60;22.50;;;;;;4993466;28;20194;-77
2022/03/08 05:25:28;;;;;;;28.00;14.30;;;2.30;22.40;;;;;;4993705;28;20232;-77
2022/03/08 05:27:54;;;;;;;27.60;13.68;;;2.60;21.80;;;;;;4993159;28;20202;-77
2022/03/08 05:30:19;;;;;;;28.38;14.65;;;2.60;21.30;;;;;;4990186;28;20189;-77
2022/03/08 05:32:45;;;;;;;21.67;12.67;;;2.10;22.90;;;;;;4989736;28;20194;-76
2022/03/08 05:35:11;;;;;;;23.63;11.53;;;1.90;23.60;;;;;;4986398;28;20186;-76
2022/03/08 05:37:37;;;;;;;26.00;11.50;;;2.10;23.10;;;;;;4985465;28;20213;-77
2022/03/08 05:40:05;;;;;;;23.93;12.00;;;2.70;22.50;;;;;;4987479;28;20524;-76
2022/03/08 05:42:30;;;;;;;20.88;11.88;;;3.40;21.70;;;;;;4987862;28;20434;-76
2022/03/08 05:44:56;;;;;;;31.20;12.90;;;3.40;21.60;;;;;;4984976;28;20182;-76
2022/03/08 05:47:22;;;;;;;31.30;13.53;;;3.10;21.80;;;;;;4986416;28;20281;-77
2022/03/08 05:49:47;;;;;;;27.27;14.57;;;2.50;22.30;;;;;;4984057;28;20534;-76
2022/03/08 05:52:13;;;;;;;27.87;13.70;;;2.70;22.40;;;;;;4992352;28;20703;-76
2022/03/08 05:54:38;;;;;;;34.13;16.53;;;2.30;22.20;;;;;;4992811;28;20277;-76
2022/03/08 05:57:04;;;;;;;40.20;17.00;;;2.30;22.60;;;;;;4991558;28;20212;-77
2022/03/08 05:59:30;;;;;;;29.63;15.38;;;1.30;23.80;;;;;;4992613;28;20181;-76
2022/03/08 06:01:56;;;;;;;31.67;16.60;;;1.00;24.50;;;;;;4992697;28;21033;-77
2022/03/08 06:04:22;;;;;;;33.93;17.67;;;1.40;24.80;;;;;;4992607;28;20264;-78
2022/03/08 06:06:47;;;;;;;40.80;18.00;;;1.40;24.40;;;;;;4992691;28;20433;-76
2022/03/08 06:09:13;;;;;;;42.20;16.23;;;1.20;23.60;;;;;;4992550;28;20520;-76
2022/03/08 06:11:39;;;;;;;31.00;16.40;;;1.90;23.90;;;;;;4992584;28;20185;-76
2022/03/08 06:14:04;;;;;;;37.37;17.30;;;2.30;23.50;;;;;;4991640;28;20189;-77
2022/03/08 06:16:30;;;;;;;39.53;18.10;;;2.70;23.40;;;;;;4991981;28;20232;-76
2022/03/08 06:18:56;;;;;;;34.93;16.97;;;2.50;23.50;;;;;;4992614;28;20226;-76
2022/03/08 06:21:22;;;;;;;34.20;16.00;;;2.60;23.40;;;;;;4992124;28;20640;-76
2022/03/08 06:23:48;;;;;;;38.85;16.45;;;2.90;22.80;;;;;;4992119;28;20342;-76
2022/03/08 06:26:13;;;;;;;26.23;14.10;;;2.60;23.40;;;;;;4992075;28;20668;-76
2022/03/08 06:28:39;;;;;;;30.40;14.30;;;2.70;23.30;;;;;;4992160;28;20209;-77
2022/03/08 06:31:04;;;;;;;25.50;13.43;;;2.60;23.50;;;;;;4991709;28;20670;-77
2022/03/08 06:33:30;;;;;;;28.93;12.53;;;3.00;22.90;;;;;;4992433;28;20182;-76
2022/03/08 06:35:56;;;;;;;28.33;14.30;;;3.30;22.60;;;;;;4992132;28;20249;-76
2022/03/08 06:38:22;;;;;;;24.93;12.23;;;3.50;22.20;;;;;;4991201;28;20249;-76
2022/03/08 06:40:48;;;;;;;30.92;14.45;;;3.80;21.80;;;;;;4992335;28;20174;-76
2022/03/08 06:43:13;;;;;;;27.30;13.13;;;3.70;21.80;;;;;;4992176;28;20211;-76
2022/03/08 06:45:39;;;;;;;22.97;12.60;;;3.90;21.70;;;;;;4991876;28;20186;-76
2022/03/08 06:48:04;;;;;;;23.10;13.33;;;4.10;21.20;;;;;;4991492;28;20221;-76
2022/03/08 06:50:30;;;;;;;28.50;12.60;;;4.20;21.20;;;;;;4992024;28;20689;-76
2022/03/08 06:52:56;;;;;;;23.70;12.77;;;4.40;21.20;;;;;;4992362;28;20197;-76
2022/03/08 06:55:21;;;;;;;22.30;13.10;;;4.60;20.80;;;;;;4991597;28;20188;-76
2022/03/08 06:57:47;;;;;;;28.40;13.47;;;4.10;21.80;;;;;;4991011;28;20753;-76
2022/03/08 07:00:13;;;;;;;23.70;13.77;;;3.80;22.20;;;;;;4990870;28;20182;-76
2022/03/08 07:02:39;;;;;;;23.85;13.10;;;3.70;22.20;;;;;;4990389;28;20731;-76
2022/03/08 07:05:05;;;;;;;23.73;13.30;;;3.50;22.60;;;;;;4989927;28;20268;-76
2022/03/08 07:07:30;;;;;;;24.95;13.52;;;3.60;23.40;;;;;;4989499;28;20198;-76
2022/03/08 07:09:56;;;;;;;25.33;13.40;;;3.40;23.10;;;;;;4990093;28;20188;-76
2022/03/08 07:12:22;;;;;;;31.10;13.60;;;3.70;22.70;;;;;;4989493;28;20433;-77
2022/03/08 07:14:47;;;;;;;35.10;13.20;;;4.10;22.00;;;;;;4990014;28;20182;-76
2022/03/08 07:17:14;;;;;;;22.57;12.57;;;3.70;22.70;;;;;;4991148;28;20494;-76
2022/03/08 07:19:40;;;;;;;30.40;14.35;;;3.70;22.90;;;;;;4990372;28;20219;-76
2022/03/08 07:22:06;;;;;;;22.65;13.65;;;3.70;22.90;;;;;;4991203;28;20192;-76
2022/03/08 07:24:31;;;;;;;24.42;13.93;;;3.40;23.50;;;;;;4990853;28;20217;-77
2022/03/08 07:26:57;;;;;;;25.80;14.60;;;3.60;23.10;;;;;;4991840;28;20186;-76
2022/03/08 07:29:23;;;;;;;24.77;13.30;;;4.10;23.00;;;;;;4990414;28;20933;-77
2022/03/08 07:31:48;;;;;;;24.07;13.57;;;4.20;22.50;;;;;;4990876;28;20178;-76
2022/03/08 07:34:14;;;;;;;23.73;13.90;;;4.70;21.40;;;;;;4989768;28;20202;-76
2022/03/08 07:36:40;;;;;;;23.80;13.07;;;4.50;21.80;;;;;;4990568;28;20188;-76
2022/03/08 07:39:06;;;;;;;25.00;14.77;;;4.30;22.30;;;;;;4989782;28;20193;-76
2022/03/08 07:41:32;;;;;;;25.73;13.88;;;4.40;21.90;;;;;;4990358;28;20417;-76
2022/03/08 07:43:58;;;;;;;25.95;14.75;;;4.60;22.00;;;;;;4987143;28;20587;-76
2022/03/08 07:46:24;;;;;;;24.87;14.90;;;4.10;22.30;;;;;;4982580;28;20183;-76
2022/03/08 07:48:49;;;;;;;25.97;15.37;;;4.00;22.20;;;;;;4982722;28;20201;-76
2022/03/08 07:51:15;;;;;;;25.63;14.30;;;4.30;22.00;;;;;;4985828;28;20422;-76
2022/03/08 07:53:41;;;;;;;24.17;13.57;;;4.50;21.20;;;;;;4988027;28;20179;-78
2022/03/08 07:56:06;;;;;;;23.60;12.40;;;4.50;22.00;;;;;;4983977;28;20186;-76
2022/03/08 07:58:34;;;;;;;26.97;14.33;;;5.30;20.50;;;;;;4986747;28;20277;-76
2022/03/08 08:00:59;;;;;;;22.17;13.20;;;5.90;19.10;;;;;;4985328;28;20171;-76
2022/03/08 08:03:25;;;;;;;19.70;12.07;;;6.50;18.80;;;;;;4983171;28;20257;-76
2022/03/08 08:05:51;;;;;;;33.60;13.60;;;5.40;19.70;;;;;;4983261;28;20256;-76
2022/03/08 08:08:16;;;;;;;24.67;12.87;;;5.40;19.30;;;;;;4981372;28;20249;-76
2022/03/08 08:10:42;;;;;;;26.87;13.20;;;5.10;20.10;;;;;;4988299;28;20198;-76
2022/03/08 08:13:07;;;;;;;25.03;13.43;;;4.70;20.80;;;;;;4992190;28;20277;-76
2022/03/08 08:15:36;;;;;;;22.70;12.90;;;5.30;19.80;;;;;;4993769;28;20190;-76
2022/03/08 08:18:02;;;;;;;23.92;12.93;;;5.30;19.40;;;;;;4994488;28;20213;-76
2022/03/08 08:20:28;;;;;;;21.23;13.07;;;5.10;19.50;;;;;;4994517;28;20178;-76
2022/03/08 08:22:53;;;;;;;21.73;13.20;;;5.20;19.40;;;;;;4995051;28;20457;-77
2022/03/08 08:25:19;;;;;;;22.37;12.07;;;5.30;19.60;;;;;;4994619;28;20178;-76
2022/03/08 08:27:45;;;;;;;21.00;12.70;;;3.00;18.10;;;;;;4994323;28;20198;-76
2022/03/08 08:30:11;;;;;;;26.60;14.33;;;5.00;19.60;;;;;;4993719;28;20647;-76
2022/03/08 08:32:37;;;;;;;21.38;13.05;;;5.40;19.10;;;;;;4994778;28;20197;-76
2022/03/08 08:35:03;;;;;;;18.30;11.63;;;5.50;19.20;;;;;;4993888;28;20240;-76
2022/03/08 08:37:29;;;;;;;30.55;13.50;;;6.30;19.90;;;;;;4995408;28;20255;-82
2022/03/08 08:39:55;;;;;;;19.40;12.10;;;5.30;18.90;;;;;;5000474;28;20182;-81
2022/03/08 08:42:21;;;;;;;20.40;12.70;;;5.50;19.00;;;;;;5000053;28;20241;-81
2022/03/08 08:44:46;;;;;;;24.20;12.90;;;5.80;18.30;;;;;;5000566;28;20233;-83
2022/03/08 08:47:12;;;;;;;23.43;13.37;;;6.30;18.10;;;;;;4998310;28;20553;-80
2022/03/08 08:49:38;;;;;;;21.90;13.40;;;6.50;18.10;;;;;;4993608;28;20178;-79
2022/03/08 08:52:07;;;;;;;25.97;12.03;;;6.70;18.30;;;;;;4991977;28;20544;-79
2022/03/08 08:54:32;;;;;;;24.05;12.63;;;6.70;17.60;;;;;;4993362;28;20518;-79
2022/03/08 08:59:26;;;;;;;19.92;12.18;;;6.20;17.10;;;;;;4991145;28;20240;-74
2022/03/08 09:01:52;;;;;;;20.43;13.27;;;6.30;17.70;;;;;;4992761;28;20886;-74
2022/03/08 09:04:17;;;;;;;24.07;12.03;;;6.10;17.20;;;;;;4993063;28;20725;-75
2022/03/08 09:06:43;;;;;;;19.33;11.43;;;5.80;18.20;;;;;;4993701;28;20194;-76
2022/03/08 09:09:09;;;;;;;20.60;11.33;;;5.80;18.80;;;;;;4983925;28;20209;-78
2022/03/08 09:11:35;;;;;;;26.13;11.55;;;6.00;17.80;;;;;;4993938;28;20227;-76
2022/03/08 09:14:02;;;;;;;18.30;11.20;;;6.50;17.20;;;;;;4991074;28;20195;-77
2022/03/08 09:16:28;;;;;;;20.17;11.63;;;6.40;17.00;;;;;;4988686;28;20178;-75
2022/03/08 09:18:54;;;;;;;21.73;12.17;;;6.20;18.10;;;;;;4993181;28;20209;-75
2022/03/08 09:21:19;;;;;;;19.00;11.40;;;6.30;17.60;;;;;;4984443;28;20456;-74
2022/03/08 09:23:45;;;;;;;22.77;12.27;;;6.40;17.20;;;;;;4993145;28;20242;-76
2022/03/08 09:26:11;;;;;;;18.37;12.00;;;6.70;17.40;;;;;;4992582;28;20175;-73
2022/03/08 09:28:36;;;;;;;19.00;11.57;;;6.70;16.90;;;;;;4992476;28;20225;-75
2022/03/08 09:31:02;;;;;;;20.93;11.67;;;6.70;17.30;;;;;;4985363;28;20178;-74
2022/03/08 09:33:28;;;;;;;22.03;10.87;;;7.20;16.30;;;;;;4992956;28;20194;-74
2022/03/08 09:35:55;;;;;;;20.15;11.75;;;7.20;16.10;;;;;;4990513;28;20437;-75
2022/03/08 09:38:20;;;;;;;23.52;13.50;;;7.80;15.40;;;;;;4982540;28;20205;-76
2022/03/08 09:40:47;;;;;;;19.13;10.93;;;7.50;15.60;;;;;;4989955;28;20590;-74
2022/03/08 09:43:14;;;;;;;19.23;10.82;;;7.40;15.30;;;;;;4988436;28;20224;-74
2022/03/08 09:45:40;;;;;;;17.33;10.50;;;6.90;16.60;;;;;;4989278;28;20186;-76
2022/03/08 09:48:06;;;;;;;16.33;10.13;;;6.80;16.00;;;;;;4983521;28;20219;-75
2022/03/08 09:50:32;;;;;;;19.00;10.83;;;7.10;15.90;;;;;;4988797;28;20421;-76
2022/03/08 09:52:58;;;;;;;18.00;11.00;;;7.20;15.50;;;;;;4991558;28;20427;-73
2022/03/08 09:55:25;;;;;;;18.60;10.50;;;7.20;16.30;;;;;;4985795;28;20170;-76
2022/03/08 09:57:54;;;;;;;17.30;10.20;;;7.10;15.40;;;;;;4985911;28;20217;-74
2022/03/08 10:00:23;;;;;;;28.17;11.20;;;7.00;15.90;;;;;;4982869;28;20195;-76
2022/03/08 10:02:55;;;;;;;19.48;10.30;;;7.10;15.40;;;;;;4984184;28;20201;-74
2022/03/08 10:05:25;;;;;;;17.75;11.70;;;7.50;14.90;;;;;;4979164;28;20452;-75
2022/03/08 10:08:11;;;;;;;20.92;11.20;;;7.50;14.70;;;;;;4986156;28;20209;-74
2022/03/08 10:10:49;;;;;;;22.42;11.07;;;7.60;14.90;;;;;;4978204;28;20181;-75
2022/03/08 10:13:15;;;;;;;34.03;11.93;;;8.30;14.20;;;;;;4988083;28;20199;-75
2022/03/08 10:15:41;;;;;;;24.27;12.03;;;7.80;14.30;;;;;;4981237;28;20178;-75
2022/03/08 10:18:07;;;;;;;21.70;11.45;;;7.60;14.60;;;;;;4981303;28;20206;-76
2022/03/08 10:20:34;;;;;;;19.70;12.88;;;7.90;14.10;;;;;;4991696;28;20185;-74
2022/03/08 10:23:02;;;;;;;20.25;12.15;;;8.40;13.70;;;;;;4983794;28;20296;-75
2022/03/08 10:25:30;;;;;;;22.10;11.75;;;8.30;13.80;;;;;;4984329;28;20173;-74
2022/03/08 10:27:55;;;;;;;23.55;11.65;;;8.20;13.90;;;;;;4983132;28;20581;-74
2022/03/08 10:30:22;;;;;;;19.87;11.47;;;8.40;14.60;;;;;;4982889;28;20178;-74
2022/03/08 10:32:48;;;;;;;23.73;12.27;;;8.40;14.40;;;;;;4984641;28;20672;-73
2022/03/08 10:35:25;;;;;;;28.97;12.10;;;8.30;13.20;;;;;;4989209;28;20240;-74
2022/03/08 10:37:51;;;;;;;20.17;12.07;;;8.80;13.00;;;;;;4980034;28;20433;-74
2022/03/08 10:40:32;;;;;;;21.05;12.00;;;9.20;12.60;;;;;;4982999;28;20194;-74
2022/03/08 10:43:07;;;;;;;23.30;12.48;;;9.10;12.40;;;;;;4985130;28;20253;-74
2022/03/08 10:45:35;;;;;;;24.15;12.05;;;9.70;14.10;;;;;;4983325;28;20184;-74
2022/03/08 10:48:06;;;;;;;21.02;12.65;;;9.80;12.70;;;;;;4984224;28;20200;-74
2022/03/08 10:50:34;;;;;;;21.45;12.95;;;9.80;12.50;;;;;;4984010;28;20178;-74
2022/03/08 10:53:01;;;;;;;19.20;12.93;;;9.40;13.00;;;;;;4977673;28;20178;-74
2022/03/08 10:55:36;;;;;;;23.40;13.93;;;9.50;13.90;;;;;;4987196;28;20458;-73
2022/03/08 10:58:07;;;;;;;20.37;13.00;;;10.20;11.50;;;;;;4990245;28;20968;-73
2022/03/08 11:00:42;;;;;;;26.83;14.90;;;10.50;11.30;;;;;;4983522;28;20445;-74
2022/03/08 11:03:10;;;;;;;24.13;13.57;;;10.60;11.00;;;;;;4983578;28;20856;-74
2022/03/08 11:05:47;;;;;;;26.20;12.70;;;10.90;10.10;;;;;;4983709;28;20434;-73
2022/03/08 11:08:13;;;;;;;20.40;13.37;;;10.60;11.50;;;;;;4982289;28;20507;-73
2022/03/08 11:10:40;;;;;;;18.70;12.60;;;10.70;10.00;;;;;;4983548;28;20422;-73
2022/03/08 11:13:07;;;;;;;19.07;13.13;;;11.10;10.10;;;;;;4986040;28;20941;-73
2022/03/08 11:15:35;;;;;;;22.10;13.90;;;11.40;10.80;;;;;;4989163;28;20949;-73
2022/03/08 11:18:03;;;;;;;21.37;13.43;;;11.30;9.60;;;;;;4987775;28;21037;-74
2022/03/08 11:20:29;;;;;;;20.67;13.33;;;12.30;9.20;;;;;;4980526;28;20918;-74
2022/03/08 11:22:56;;;;;;;19.73;13.60;;;14.10;8.90;;;;;;4980501;28;21101;-75
2022/03/08 11:25:31;;;;;;;18.90;11.90;;;14.90;7.80;;;;;;4991232;28;20937;-73
2022/03/08 11:27:57;;;;;;;18.97;11.80;;;14.90;6.10;;;;;;4998636;28;20437;-74
2022/03/08 11:30:26;;;;;;;19.40;11.03;;;13.60;7.70;;;;;;4983864;28;20498;-73
2022/03/08 11:33:26;;;;;;;20.13;11.50;;;13.20;8.70;;;;;;4981598;28;20967;-73
2022/03/08 11:36:00;;;;;;;23.33;11.70;;;13.30;7.50;;;;;;4982701;28;20914;-73
2022/03/08 11:38:26;;;;;;;20.23;11.00;;;13.70;7.80;;;;;;4982824;28;20449;-74
2022/03/08 11:40:55;;;;;;;14.30;10.27;;;14.60;6.00;;;;;;4990438;28;20558;-74
2022/03/08 11:43:35;;;;;;;17.73;10.50;;;15.40;6.10;;;;;;4977927;28;20222;-74
2022/03/08 11:46:21;;;;;;;14.77;11.07;;;15.50;5.50;;;;;;4994783;28;20502;-73
2022/03/08 11:48:56;;;;;;;26.93;11.13;;;15.40;5.90;;;;;;4985545;28;20450;-74
2022/03/08 11:51:27;;;;;;;19.07;10.30;;;15.10;4.60;;;;;;4984830;28;20847;-74
2022/03/08 11:54:27;;;;;;;13.63;9.60;;;15.80;5.70;;;;;;4985524;28;20523;-73
2022/03/08 11:56:54;;;;;;;16.93;10.50;;;16.20;3.60;;;;;;4979373;28;20532;-76
2022/03/08 11:59:20;;;;;;;14.27;9.40;;;15.30;4.20;;;;;;4988275;28;20471;-74
2022/03/08 12:01:47;;;;;;;14.80;10.23;;;16.40;4.40;;;;;;4984256;28;20422;-74
2022/03/08 12:04:20;;;;;;;11.90;8.97;;;17.00;4.40;;;;;;4989352;28;20461;-73
2022/03/08 12:06:56;;;;;;;23.03;11.40;;;16.10;6.30;;;;;;4983912;28;20423;-75
2022/03/08 12:09:25;;;;;;;16.77;10.30;;;16.70;4.00;;;;;;4985912;28;20441;-77
2022/03/08 12:11:56;;;;;;;14.23;10.90;;;16.90;3.20;;;;;;4989485;28;20427;-76
2022/03/08 12:14:42;;;;;;;15.80;10.90;;;17.50;3.30;;;;;;4993869;28;20791;-74
2022/03/08 12:17:17;;;;;;;16.10;10.37;;;18.10;3.80;;;;;;4987169;28;20854;-74
2022/03/08 12:19:49;;;;;;;13.90;10.07;;;17.50;4.20;;;;;;4987105;28;20452;-74
2022/03/08 12:22:20;;;;;;;16.57;11.23;;;17.40;3.00;;;;;;4991920;28;20487;-74
2022/03/08 12:24:52;;;;;;;15.43;10.60;;;16.70;3.80;;;;;;4986827;28;20484;-77
2022/03/08 12:27:20;;;;;;;16.43;10.80;;;17.20;4.00;;;;;;4984689;28;20486;-75
2022/03/08 12:29:46;;;;;;;18.50;11.90;;;17.30;3.20;;;;;;4993402;28;20423;-76
2022/03/08 12:32:25;;;;;;;15.83;11.43;;;17.00;3.40;;;;;;4986007;28;20434;-73
2022/03/08 12:34:54;;;;;;;13.73;10.57;;;16.40;4.00;;;;;;4985009;28;20274;-74
2022/03/08 12:37:40;;;;;;;15.40;11.37;;;16.80;4.40;;;;;;4992142;28;20532;-73